Time;durP1;ratioP1;P1;durP2;ratioP2;P2;SDS_P1;SDS_P2;PMS_P1;PMS_P2;Temp;Humidity;BMP_temperature;BMP_pressure;BME280_temperature;BME280_humidity;BME280_pressure;Samples;Min_cycle;Max_cycle;Signal;HPM_P1;HPM_P2
2024/01/12 00:00:13;;;;;;;57.50;26.67;;;;;;;-0.71;95.47;102570.22;6272589;22;20031;-70
2024/01/12 00:02:40;;;;;;;47.88;23.40;;;;;;;-0.68;95.25;102566.63;6271973;22;20400;-70
2024/01/12 00:05:07;;;;;;;48.65;24.63;;;;;;;-0.69;95.58;102576.41;6272401;22;20346;-70
2024/01/12 00:07:34;;;;;;;48.90;23.65;;;;;;;-0.76;95.71;102580.91;6271518;22;20034;-70
2024/01/12 00:10:00;;;;;;;54.95;23.05;;;;;;;-0.70;95.56;102574.63;6271629;22;20027;-70
2024/01/12 00:12:27;;;;;;;49.92;22.30;;;;;;;-0.80;95.45;102576.53;6271506;22;20019;-71
2024/01/12 00:14:54;;;;;;;46.30;22.65;;;;;;;-0.70;95.67;102584.41;6272136;22;20031;-71
2024/01/12 00:17:20;;;;;;;49.47;23.90;;;;;;;-0.67;95.33;102585.25;6272172;22;20093;-70
2024/01/12 00:19:48;;;;;;;46.53;23.65;;;;;;;-0.58;95.37;102581.59;6271983;22;20098;-70
2024/01/12 00:22:15;;;;;;;50.47;23.77;;;;;;;-0.63;95.00;102581.63;6272036;22;20027;-70
2024/01/12 00:24:41;;;;;;;50.70;22.98;;;;;;;-0.61;95.13;102585.19;6272979;22;20446;-70
2024/01/12 00:27:08;;;;;;;44.33;23.33;;;;;;;-0.29;94.76;102576.78;6272153;22;20030;-70
2024/01/12 00:29:34;;;;;;;47.45;22.33;;;;;;;-0.28;94.37;102567.88;6271133;22;20077;-70
2024/01/12 00:32:01;;;;;;;39.85;21.60;;;;;;;-0.39;94.22;102574.25;6272239;22;20019;-70
2024/01/12 00:34:27;;;;;;;43.88;21.77;;;;;;;-0.51;94.62;102570.84;6271196;22;20110;-71
2024/01/12 00:36:54;;;;;;;42.17;22.38;;;;;;;-0.57;95.00;102576.25;6272472;22;20362;-71
2024/01/12 00:39:21;;;;;;;41.63;22.08;;;;;;;-0.61;95.33;102576.31;6272201;22;20481;-71
2024/01/12 00:41:50;;;;;;;41.80;21.48;;;;;;;-0.60;95.14;102578.97;6271986;22;20085;-71
2024/01/12 00:44:21;;;;;;;45.80;21.70;;;;;;;-0.56;95.08;102580.66;6272039;22;20024;-71
2024/01/12 00:46:50;;;;;;;38.63;21.10;;;;;;;-0.66;95.05;102587.00;6272394;22;20392;-71
2024/01/12 00:49:18;;;;;;;40.22;20.50;;;;;;;-0.53;95.04;102578.00;6272090;22;20532;-71
2024/01/12 00:51:45;;;;;;;39.38;20.83;;;;;;;-0.53;94.78;102580.66;6272012;22;20099;-71
2024/01/12 00:54:13;;;;;;;40.60;20.42;;;;;;;-0.59;95.20;102583.38;6270788;22;20023;-70
2024/01/12 00:56:40;;;;;;;49.17;21.35;;;;;;;-0.54;94.79;102578.84;6270955;22;20026;-71
2024/01/12 00:59:07;;;;;;;40.30;20.50;;;;;;;-0.53;95.04;102580.66;6271777;22;20102;-70
2024/01/12 01:01:34;;;;;;;44.90;22.25;;;;;;;-0.53;94.85;102577.09;6245257;22;20027;-69
2024/01/12 01:04:01;;;;;;;42.17;22.20;;;;;;;-0.49;94.87;102579.69;6271851;22;20441;-69
2024/01/12 01:06:28;;;;;;;35.90;20.38;;;;;;;-0.45;94.51;102586.75;6271981;22;20126;-69
2024/01/12 01:08:55;;;;;;;45.15;20.33;;;;;;;-0.57;94.56;102581.56;6271585;22;20024;-70
2024/01/12 01:11:21;;;;;;;40.10;20.58;;;;;;;-0.54;94.87;102575.31;6272991;22;20023;-70
2024/01/12 01:13:49;;;;;;;41.55;21.42;;;;;;;-0.54;94.55;102578.84;6271247;22;20030;-70
2024/01/12 01:16:15;;;;;;;38.10;20.55;;;;;;;-0.47;94.78;102583.22;6271884;22;20023;-71
2024/01/12 01:18:42;;;;;;;42.58;21.27;;;;;;;-0.50;94.77;102587.72;6271262;22;20019;-70
2024/01/12 01:21:09;;;;;;;37.47;19.38;;;;;;;-0.45;94.42;102585.88;6271910;22;20023;-70
2024/01/12 01:23:36;;;;;;;37.95;21.17;;;;;;;-0.43;94.73;102587.63;6271565;22;20031;-70
2024/01/12 01:26:03;;;;;;;42.17;20.30;;;;;;;-0.44;94.42;102585.00;6272696;22;20047;-70
2024/01/12 01:28:29;;;;;;;38.47;20.15;;;;;;;-0.52;94.52;102578.88;6273989;22;20011;-70
2024/01/12 01:30:56;;;;;;;40.88;20.83;;;;;;;-0.52;94.59;102582.41;6275436;22;20378;-70
2024/01/12 01:33:23;;;;;;;48.55;22.70;;;;;;;-0.47;94.79;102583.22;6275851;22;20023;-70
2024/01/12 01:35:50;;;;;;;45.67;22.55;;;;;;;-0.48;95.12;102581.47;6249308;22;20020;-69
2024/01/12 01:38:17;;;;;;;39.88;21.73;;;;;;;-0.57;94.88;102581.56;6275011;22;20039;-69
2024/01/12 01:40:45;;;;;;;40.45;22.05;;;;;;;-0.39;94.33;102566.25;6257462;22;20099;-69
2024/01/12 01:43:11;;;;;;;38.35;21.20;;;;;;;-0.31;94.04;102557.25;6243864;23;20362;-69
2024/01/12 01:45:38;;;;;;;41.10;22.13;;;;;;;-0.28;94.06;102559.00;6243889;23;20040;-69
2024/01/12 01:48:08;;;;;;;45.33;22.88;;;;;;;-0.50;94.43;102564.63;6243537;23;20059;-70
2024/01/12 01:50:36;;;;;;;46.58;23.75;;;;;;;-0.51;94.48;102561.97;6243714;23;20075;-69
2024/01/12 01:53:04;;;;;;;45.45;22.98;;;;;;;-0.49;94.90;102563.72;6243508;23;20020;-70
2024/01/12 01:55:32;;;;;;;48.67;23.08;;;;;;;-0.41;94.77;102565.41;6243427;23;20062;-70
2024/01/12 01:58:02;;;;;;;44.10;22.80;;;;;;;-0.48;94.33;102570.81;6243276;23;20024;-70
2024/01/12 02:00:31;;;;;;;28.42;15.20;;;;;;;-0.38;94.70;102566.22;6244159;23;20026;-70
2024/01/12 02:03:01;;;;;;;44.53;21.17;;;;;;;-0.34;94.37;102556.44;6244173;23;20090;-69
2024/01/12 02:09:14;;;;;;;47.20;22.88;;;;;;;-0.50;94.57;102551.28;6243950;23;20031;-70
2024/01/12 02:11:41;;;;;;;47.47;22.45;;;;;;;-0.49;95.01;102546.84;6244496;23;20016;-70
2024/01/12 02:14:08;;;;;;;43.17;22.35;;;;;;;-0.47;94.52;102553.91;6243379;23;20103;-69
2024/01/12 02:16:35;;;;;;;51.75;23.25;;;;;;;-0.45;95.03;102560.09;6243403;23;20355;-70
2024/01/12 02:19:03;;;;;;;50.90;23.48;;;;;;;-0.50;94.57;102559.28;6243843;23;20031;-70
2024/01/12 02:21:30;;;;;;;45.65;22.27;;;;;;;-0.53;94.68;102561.13;6243664;23;20016;-70
2024/01/12 02:23:57;;;;;;;49.45;23.67;;;;;;;-0.45;95.08;102559.22;6244696;23;20405;-70
2024/01/12 02:26:24;;;;;;;46.00;21.88;;;;;;;-0.48;94.82;102560.13;6245378;23;20020;-70
2024/01/12 02:28:52;;;;;;;42.10;21.50;;;;;;;-0.41;94.83;102560.94;6244325;23;20016;-70
2024/01/12 02:31:19;;;;;;;42.13;21.25;;;;;;;-0.43;94.41;102562.75;6243899;23;20082;-69
2024/01/12 02:33:49;;;;;;;46.38;22.40;;;;;;;-0.51;94.55;102568.19;6244215;23;20079;-70
2024/01/12 02:36:16;;;;;;;41.25;22.25;;;;;;;-0.46;94.65;102569.00;6243672;23;20020;-70
2024/01/12 02:38:48;;;;;;;44.17;22.77;;;;;;;-0.41;94.97;102570.72;6242463;23;20123;-69
2024/01/12 02:41:14;;;;;;;46.88;22.63;;;;;;;-0.40;94.37;102567.16;6238952;22;20034;-70
2024/01/12 02:43:42;;;;;;;41.90;22.27;;;;;;;-0.43;94.63;102574.31;6272282;22;20024;-70
2024/01/12 02:46:08;;;;;;;45.45;22.73;;;;;;;-0.44;94.60;102580.53;6273229;22;20028;-70
2024/01/12 02:48:35;;;;;;;45.75;23.67;;;;;;;-0.36;94.26;102579.53;6273071;22;20020;-71
2024/01/12 02:51:01;;;;;;;44.92;22.67;;;;;;;-0.30;94.18;102569.69;6273434;22;20343;-70
2024/01/12 02:53:28;;;;;;;53.33;24.67;;;;;;;-0.27;94.48;102568.75;6273486;22;20019;-71
2024/01/12 02:55:55;;;;;;;44.50;23.67;;;;;;;-0.34;94.40;102567.09;6273514;22;20371;-70
2024/01/12 02:58:22;;;;;;;54.35;24.67;;;;;;;-0.41;94.59;102578.72;6273623;22;20085;-69
2024/01/12 03:00:48;;;;;;;49.20;24.73;;;;;;;-0.34;94.80;102575.09;6272868;22;20098;-69
2024/01/12 03:03:15;;;;;;;48.63;24.00;;;;;;;-0.52;95.09;102578.88;6272449;22;20022;-70
2024/01/12 03:05:42;;;;;;;56.35;24.95;;;;;;;-0.53;94.78;102570.00;6273445;22;20015;-70
2024/01/12 03:08:09;;;;;;;56.72;26.52;;;;;;;-0.49;94.97;102571.69;6272984;22;20078;-70
2024/01/12 03:10:37;;;;;;;47.65;23.52;;;;;;;-0.44;94.71;102571.66;6272579;22;20023;-70
2024/01/12 03:13:03;;;;;;;53.20;24.60;;;;;;;-0.38;95.02;102560.03;6272869;22;20019;-70
2024/01/12 03:15:30;;;;;;;54.67;25.45;;;;;;;-0.41;94.75;102557.41;6272838;22;20043;-70
2024/01/12 03:17:56;;;;;;;59.60;25.45;;;;;;;-0.30;94.56;102563.47;6272661;22;20057;-70
2024/01/12 03:20:23;;;;;;;53.67;25.50;;;;;;;-0.44;94.36;102567.22;6273230;22;20024;-70
2024/01/12 03:22:52;;;;;;;52.17;24.55;;;;;;;-0.42;94.56;102561.84;6272382;22;20346;-70
2024/01/12 03:25:18;;;;;;;53.20;25.63;;;;;;;-0.39;94.57;102568.91;6271468;22;20081;-69
2024/01/12 03:27:45;;;;;;;53.50;24.88;;;;;;;-0.36;94.71;102561.75;6272486;22;20038;-69
2024/01/12 03:30:11;;;;;;;53.15;23.55;;;;;;;-0.27;94.41;102566.09;6273377;22;20028;-70
2024/01/12 03:32:38;;;;;;;65.45;26.08;;;;;;;-0.30;94.28;102558.13;6273492;22;20020;-72
2024/01/12 03:35:05;;;;;;;58.47;25.08;;;;;;;-0.31;93.88;102551.03;6274002;22;20481;-72
2024/01/12 03:37:32;;;;;;;50.72;24.13;;;;;;;-0.36;94.22;102547.53;6273290;22;20458;-72
2024/01/12 03:39:58;;;;;;;49.50;23.25;;;;;;;-0.43;94.62;102541.44;6273196;22;20354;-70
2024/01/12 03:42:25;;;;;;;48.63;23.58;;;;;;;-0.39;94.29;102536.94;6273870;22;20024;-70
2024/01/12 03:44:51;;;;;;;57.67;25.00;;;;;;;-0.34;94.46;102535.09;6273454;22;20031;-71
2024/01/12 03:47:18;;;;;;;52.08;23.13;;;;;;;-0.41;94.13;102514.75;6273018;22;20031;-71
2024/01/12 03:49:44;;;;;;;54.92;24.30;;;;;;;-0.30;94.43;102510.16;6273576;22;20035;-71
2024/01/12 03:52:12;;;;;;;52.15;24.02;;;;;;;-0.41;94.36;102502.31;6273208;22;20409;-71
2024/01/12 03:54:41;;;;;;;55.58;24.15;;;;;;;-0.42;94.44;102503.22;6273007;22;20031;-71
2024/01/12 03:57:08;;;;;;;51.75;23.23;;;;;;;-0.33;93.90;102507.53;6273330;22;20050;-71
2024/01/12 03:59:36;;;;;;;51.53;22.65;;;;;;;-0.25;93.60;102500.31;6247106;22;20027;-71
2024/01/12 04:02:03;;;;;;;43.83;23.15;;;;;;;-0.50;94.61;102492.66;6273294;22;20028;-71
2024/01/12 04:04:30;;;;;;;56.17;24.60;;;;;;;-0.43;94.06;102510.31;6272817;22;20020;-71
2024/01/12 04:06:57;;;;;;;52.88;23.77;;;;;;;-0.36;94.09;102516.44;6272407;22;20027;-71
2024/01/12 04:09:23;;;;;;;41.72;21.90;;;;;;;-0.29;94.10;102514.56;6273951;22;20020;-71
2024/01/12 04:11:50;;;;;;;44.58;21.73;;;;;;;-0.19;93.06;102502.84;6272911;22;20561;-71
2024/01/12 04:14:17;;;;;;;47.95;21.38;;;;;;;-0.24;93.09;102502.06;6272878;22;20020;-71
2024/01/12 04:16:43;;;;;;;43.00;20.55;;;;;;;-0.32;93.70;102501.28;6272778;22;20023;-71
2024/01/12 04:19:10;;;;;;;43.50;21.83;;;;;;;-0.34;93.55;102503.09;6272321;22;20407;-71
2024/01/12 04:21:36;;;;;;;43.30;21.58;;;;;;;-0.26;93.32;102509.19;6273146;22;20032;-71
2024/01/12 04:24:03;;;;;;;44.17;21.60;;;;;;;-0.37;93.16;102508.47;6273282;22;20058;-70
2024/01/12 04:26:30;;;;;;;42.60;21.58;;;;;;;-0.39;93.39;102504.94;6272910;22;20078;-71
2024/01/12 04:28:57;;;;;;;40.60;21.25;;;;;;;-0.44;93.75;102508.56;6273221;22;20098;-71
2024/01/12 04:31:24;;;;;;;40.60;20.15;;;;;;;-0.47;93.91;102502.38;6273521;22;20454;-70
2024/01/12 04:33:50;;;;;;;42.15;21.33;;;;;;;-0.53;93.80;102503.38;6273551;22;20050;-70
2024/01/12 04:36:22;;;;;;;47.58;22.17;;;;;;;-0.49;93.94;102505.06;6246345;22;20035;-71
2024/01/12 04:38:48;;;;;;;42.15;21.48;;;;;;;-0.42;94.28;102500.53;6272778;22;20093;-71
2024/01/12 04:41:15;;;;;;;42.53;20.63;;;;;;;-0.43;93.57;102504.13;6245739;22;20032;-70
2024/01/12 04:43:42;;;;;;;44.47;20.38;;;;;;;-0.50;94.11;102505.97;6271828;22;20073;-71
2024/01/12 04:46:08;;;;;;;44.17;20.23;;;;;;;-0.56;94.06;102502.50;6272827;22;20024;-71
2024/01/12 04:48:35;;;;;;;44.53;21.02;;;;;;;-0.34;93.83;102495.09;6271738;22;20081;-71
2024/01/12 04:51:02;;;;;;;41.90;20.83;;;;;;;-0.30;93.22;102495.03;6271591;22;20024;-71
2024/01/12 04:53:28;;;;;;;43.63;21.27;;;;;;;-0.47;93.45;102492.59;6272449;22;20027;-71
2024/01/12 04:55:55;;;;;;;40.03;20.17;;;;;;;-0.38;93.27;102494.25;6272410;22;20023;-72
2024/01/12 04:58:22;;;;;;;42.92;21.00;;;;;;;-0.49;93.17;102494.41;6272694;22;20088;-71
2024/01/12 05:00:48;;;;;;;49.97;22.50;;;;;;;-0.57;94.12;102501.63;6270711;22;20028;-71
2024/01/12 05:03:15;;;;;;;43.60;21.30;;;;;;;-0.54;94.25;102501.56;6272359;22;20104;-71
2024/01/12 05:05:42;;;;;;;43.08;21.30;;;;;;;-0.53;93.84;102503.38;6273071;22;20019;-71
2024/01/12 05:08:10;;;;;;;49.83;22.80;;;;;;;-0.40;93.49;102509.41;6272630;22;20050;-71
2024/01/12 05:10:36;;;;;;;38.80;19.98;;;;;;;-0.42;93.10;102503.22;6272868;22;20019;-71
2024/01/12 05:13:03;;;;;;;40.08;19.48;;;;;;;-0.50;93.20;102497.97;6271740;22;20027;-71
2024/01/12 05:15:30;;;;;;;39.00;18.08;;;;;;;-0.41;93.58;102512.09;6246159;22;20043;-71
2024/01/12 05:17:56;;;;;;;41.53;19.45;;;;;;;-0.23;92.61;102511.81;6272903;22;20487;-71
2024/01/12 05:20:25;;;;;;;44.42;20.85;;;;;;;-0.22;92.51;102508.25;6274056;22;20019;-71
2024/01/12 05:22:54;;;;;;;41.77;20.70;;;;;;;-0.48;92.90;102504.16;6273414;22;20032;-71
2024/01/12 05:25:20;;;;;;;44.70;19.67;;;;;;;-0.44;93.33;102505.91;6273764;22;20022;-71
2024/01/12 05:27:47;;;;;;;38.45;19.33;;;;;;;-0.32;92.39;102511.97;6272896;22;20019;-71
2024/01/12 05:30:14;;;;;;;43.88;21.52;;;;;;;-0.27;92.21;102513.63;6273133;22;20064;-71
2024/01/12 05:32:41;;;;;;;39.58;19.27;;;;;;;-0.29;92.31;102506.56;6272916;22;20024;-70
2024/01/12 05:35:08;;;;;;;38.33;18.27;;;;;;;-0.43;91.89;102502.34;6274016;22;20054;-70
2024/01/12 05:37:35;;;;;;;34.60;18.30;;;;;;;-0.51;92.73;102509.53;6273355;22;20023;-71
2024/01/12 05:40:02;;;;;;;38.13;17.23;;;;;;;-0.62;92.89;102508.81;6265732;22;20094;-71
2024/01/12 05:42:29;;;;;;;37.35;17.85;;;;;;;-0.67;93.38;102510.66;6242546;23;20027;-71
2024/01/12 05:44:55;;;;;;;40.83;19.27;;;;;;;-0.65;93.61;102503.50;6242308;23;20032;-71
2024/01/12 05:47:22;;;;;;;41.08;18.70;;;;;;;-0.62;93.31;102510.59;6242588;23;20389;-71
2024/01/12 05:49:49;;;;;;;37.70;18.20;;;;;;;-0.59;93.82;102507.88;6242161;23;20020;-71
2024/01/12 05:52:16;;;;;;;38.90;18.55;;;;;;;-0.43;92.55;102518.31;6242112;23;20043;-71
2024/01/12 05:54:43;;;;;;;35.22;18.58;;;;;;;-0.26;91.49;102518.06;6241427;23;20020;-71
2024/01/12 05:57:10;;;;;;;34.83;18.13;;;;;;;-0.34;91.70;102511.09;6241539;23;20024;-71
2024/01/12 05:59:37;;;;;;;38.65;18.23;;;;;;;-0.34;90.91;102529.75;6241652;23;20071;-71
2024/01/12 06:02:03;;;;;;;34.95;17.85;;;;;;;-0.43;91.42;102530.78;6215531;23;20036;-71
2024/01/12 06:04:30;;;;;;;35.97;17.90;;;;;;;-0.50;92.20;102529.97;6241860;23;20565;-71
2024/01/12 06:06:56;;;;;;;32.80;17.38;;;;;;;-0.62;91.82;102524.81;6242051;23;20029;-71
2024/01/12 06:09:23;;;;;;;34.90;16.98;;;;;;;-0.77;92.59;102524.97;6242242;23;20034;-71
2024/01/12 06:11:49;;;;;;;33.47;17.60;;;;;;;-0.66;93.02;102515.06;6242259;23;20020;-71
2024/01/12 06:14:16;;;;;;;38.83;17.83;;;;;;;-0.77;93.28;102515.22;6243229;23;20530;-71
2024/01/12 06:16:43;;;;;;;38.58;17.95;;;;;;;-0.77;93.34;102520.53;6243914;23;20451;-71
2024/01/12 06:19:10;;;;;;;34.88;17.40;;;;;;;-0.75;93.05;102524.06;6242728;23;20021;-71
2024/01/12 06:21:37;;;;;;;34.67;16.95;;;;;;;-0.69;92.33;102522.22;6243628;23;20099;-71
2024/01/12 06:24:06;;;;;;;41.08;18.48;;;;;;;-0.85;93.28;102526.84;6244018;23;20031;-72
2024/01/12 06:26:32;;;;;;;36.40;17.67;;;;;;;-0.83;93.24;102531.25;6243712;23;20032;-71
2024/01/12 06:28:59;;;;;;;35.90;18.90;;;;;;;-0.76;93.46;102532.06;6243893;23;20028;-72
2024/01/12 06:31:30;;;;;;;38.05;18.17;;;;;;;-0.97;93.87;102527.88;6243514;23;20043;-72
2024/01/12 06:33:57;;;;;;;35.78;17.15;;;;;;;-0.90;93.60;102539.38;6243646;23;20028;-71
2024/01/12 06:36:23;;;;;;;29.65;14.75;;;;;;;-0.79;92.71;102542.78;6244561;23;20075;-71
2024/01/12 06:38:51;;;;;;;27.55;13.57;;;;;;;-0.68;92.14;102532.88;6244031;23;20050;-72
2024/01/12 06:41:22;;;;;;;28.52;13.63;;;;;;;-0.68;91.49;102527.53;6243376;22;20027;-71
2024/01/12 06:43:48;;;;;;;26.90;12.55;;;;;;;-0.84;92.05;102534.81;6243028;23;20529;-71
2024/01/12 06:46:15;;;;;;;25.98;12.75;;;;;;;-0.73;92.26;102542.69;6242807;23;25565;-71
2024/01/12 06:48:42;;;;;;;26.05;12.90;;;;;;;-0.85;92.37;102546.38;6243290;23;20516;-71
2024/01/12 06:51:09;;;;;;;25.60;13.63;;;;;;;-0.72;91.88;102552.47;6243433;23;20462;-71
2024/01/12 06:53:36;;;;;;;34.33;14.70;;;;;;;-0.75;91.92;102533.84;6243702;23;20027;-71
2024/01/12 06:56:03;;;;;;;22.67;11.48;;;;;;;-0.65;91.09;102543.47;6242673;23;20366;-72
2024/01/12 06:58:30;;;;;;;24.33;12.23;;;;;;;-0.90;91.64;102526.03;6242818;23;20047;-71
2024/01/12 07:00:58;;;;;;;24.35;12.18;;;;;;;-0.79;92.03;102530.34;6242878;23;20024;-72
2024/01/12 07:03:25;;;;;;;25.52;12.15;;;;;;;-0.98;92.49;102531.44;6243115;23;20015;-71
2024/01/12 07:05:52;;;;;;;26.10;12.80;;;;;;;-0.91;92.43;102526.91;6244094;23;20020;-72
2024/01/12 07:08:19;;;;;;;25.17;13.10;;;;;;;-0.87;92.23;102520.66;6243652;23;20030;-72
2024/01/12 07:10:46;;;;;;;31.08;13.90;;;;;;;-0.87;92.13;102520.66;6243793;23;20103;-71
2024/01/12 07:13:13;;;;;;;29.48;12.63;;;;;;;-0.99;92.83;102518.16;6243696;23;20409;-72
2024/01/12 07:15:40;;;;;;;22.98;12.07;;;;;;;-0.74;92.53;102514.28;6242587;23;20024;-71
2024/01/12 07:18:06;;;;;;;24.38;11.98;;;;;;;-0.81;91.63;102510.84;6243408;23;20027;-72
2024/01/12 07:20:33;;;;;;;21.70;11.35;;;;;;;-0.69;91.11;102517.78;6243543;23;20020;-72
2024/01/12 07:23:00;;;;;;;23.90;12.57;;;;;;;-0.72;90.90;102501.84;6243962;23;20359;-71
2024/01/12 07:25:28;;;;;;;30.00;12.52;;;;;;;-0.87;91.50;102502.03;6243403;23;20043;-72
2024/01/12 07:27:55;;;;;;;24.00;12.32;;;;;;;-0.91;92.17;102506.50;6243554;23;20339;-72
2024/01/12 07:30:22;;;;;;;25.50;13.20;;;;;;;-0.83;92.13;102514.41;6243908;23;20332;-72
2024/01/12 07:32:48;;;;;;;25.17;13.15;;;;;;;-0.87;92.22;102510.00;6243575;23;20020;-71
2024/01/12 07:35:15;;;;;;;25.50;12.98;;;;;;;-0.89;92.36;102504.72;6243276;23;20031;-71
2024/01/12 07:37:42;;;;;;;24.73;12.25;;;;;;;-0.85;91.40;102489.56;6242988;23;20031;-71
2024/01/12 07:40:09;;;;;;;23.50;12.18;;;;;;;-0.64;90.80;102491.06;6243526;22;20083;-71
2024/01/12 07:42:37;;;;;;;20.33;11.27;;;;;;;-0.77;91.31;102493.00;6243239;23;20083;-72
2024/01/12 07:45:05;;;;;;;23.73;10.88;;;;;;;-0.80;91.35;102493.06;6243901;23;20024;-71
2024/01/12 07:47:31;;;;;;;25.48;11.50;;;;;;;-0.68;91.39;102486.69;6242816;23;20020;-71
2024/01/12 07:49:58;;;;;;;24.45;11.75;;;;;;;-0.76;90.85;102489.44;6243690;23;20083;-72
2024/01/12 07:52:25;;;;;;;22.02;11.05;;;;;;;-0.79;91.70;102489.50;6244110;23;20031;-71
2024/01/12 07:54:52;;;;;;;22.65;12.52;;;;;;;-0.81;91.87;102480.66;6244037;23;20128;-72
2024/01/12 07:57:18;;;;;;;25.90;12.00;;;;;;;-0.65;91.32;102470.66;6242873;23;20410;-71
2024/01/12 07:59:45;;;;;;;24.15;11.90;;;;;;;-0.80;91.63;102466.41;6243029;23;20043;-72
2024/01/12 08:02:11;;;;;;;20.25;11.13;;;;;;;-0.83;91.91;102458.44;6243566;23;20447;-71
2024/01/12 08:04:38;;;;;;;22.48;12.40;;;;;;;-0.78;92.29;102460.16;6243136;23;20024;-71
2024/01/12 08:07:06;;;;;;;28.15;13.18;;;;;;;-0.70;91.84;102456.53;6243079;23;20032;-72
2024/01/12 08:09:33;;;;;;;23.05;12.38;;;;;;;-0.75;91.81;102448.56;6243459;23;20044;-72
2024/01/12 08:11:59;;;;;;;25.40;12.73;;;;;;;-0.71;91.66;102460.97;6243513;23;20055;-72
2024/01/12 08:14:26;;;;;;;23.17;12.02;;;;;;;-0.84;91.38;102460.22;6242910;23;20051;-72
2024/01/12 08:16:54;;;;;;;26.08;12.88;;;;;;;-0.76;91.81;102454.81;6243734;23;20531;-72
2024/01/12 08:19:21;;;;;;;21.38;11.80;;;;;;;-0.53;91.56;102449.19;6243171;23;20016;-72
2024/01/12 08:21:47;;;;;;;27.55;12.77;;;;;;;-0.51;90.99;102458.91;6242771;23;20627;-72
2024/01/12 08:24:21;;;;;;;25.60;12.07;;;;;;;-0.52;90.94;102456.28;6244128;23;20303;-71
2024/01/12 08:26:48;;;;;;;23.45;11.38;;;;;;;-0.52;90.26;102456.28;6243106;23;20024;-72
2024/01/12 08:29:15;;;;;;;24.48;11.95;;;;;;;-0.54;90.89;102445.59;6242709;23;20052;-72
2024/01/12 08:31:42;;;;;;;26.20;11.63;;;;;;;-0.61;91.21;102457.28;6242529;23;20099;-71
2024/01/12 08:34:09;;;;;;;23.58;11.55;;;;;;;-0.65;91.06;102455.53;6242380;23;20359;-72
2024/01/12 08:36:36;;;;;;;22.85;11.05;;;;;;;-0.54;90.76;102452.72;6242234;23;20020;-71
2024/01/12 08:39:03;;;;;;;23.45;11.30;;;;;;;-0.62;90.91;102460.84;6242395;23;20094;-72
2024/01/12 08:41:30;;;;;;;19.75;10.90;;;;;;;-0.48;90.65;102457.97;6242132;22;20020;-72
2024/01/12 08:43:57;;;;;;;24.85;12.90;;;;;;;-0.52;90.43;102462.47;6242649;23;20024;-72
2024/01/12 08:46:24;;;;;;;66.18;29.70;;;;;;;-0.52;90.89;102459.81;6243067;23;20051;-72
2024/01/12 08:48:52;;;;;;;39.78;19.50;;;;;;;-0.49;90.67;102461.53;6242295;23;20016;-72
2024/01/12 08:51:19;;;;;;;21.38;10.95;;;;;;;-0.44;90.26;102467.72;6242394;23;20020;-72
2024/01/12 08:53:46;;;;;;;20.65;9.88;;;;;;;-0.33;89.87;102464.88;6242359;23;20028;-72
2024/01/12 08:56:13;;;;;;;20.33;10.00;;;;;;;-0.37;89.86;102476.47;6242183;23;20024;-71
2024/01/12 08:58:40;;;;;;;18.77;9.77;;;;;;;-0.32;90.16;102466.63;6241995;23;20103;-71
2024/01/12 09:01:06;;;;;;;20.40;9.70;;;;;;;-0.15;88.90;102461.94;6242084;23;20032;-72
2024/01/12 09:03:33;;;;;;;20.10;10.27;;;;;;;-0.27;89.31;102472.75;6242424;23;20107;-72
2024/01/12 09:06:00;;;;;;;18.70;9.63;;;;;;;-0.51;89.97;102461.56;6242669;23;20051;-72
2024/01/12 09:08:26;;;;;;;20.33;10.40;;;;;;;-0.53;90.40;102474.03;6242648;23;20095;-72
2024/01/12 09:10:53;;;;;;;21.50;9.43;;;;;;;-0.33;90.14;102472.88;6243610;23;20032;-72
2024/01/12 09:13:20;;;;;;;18.63;9.65;;;;;;;-0.30;89.51;102467.47;6242650;23;20028;-72
2024/01/12 09:15:47;;;;;;;21.27;9.23;;;;;;;-0.26;89.61;102470.06;6241852;23;20026;-72
2024/01/12 09:18:14;;;;;;;20.25;10.20;;;;;;;-0.27;89.85;102472.75;6242531;23;20062;-72
2024/01/12 09:20:41;;;;;;;18.45;8.40;;;;;;;-0.26;89.29;102475.41;6242760;23;20024;-72
2024/01/12 09:23:08;;;;;;;17.08;8.90;;;;;;;-0.23;89.21;102471.81;6216212;23;20047;-72
2024/01/12 09:25:35;;;;;;;19.17;8.57;;;;;;;-0.35;88.79;102472.91;6242979;23;20035;-72
2024/01/12 09:28:02;;;;;;;19.52;10.15;;;;;;;-0.47;89.72;102471.28;6242764;23;20035;-72
2024/01/12 09:30:29;;;;;;;20.20;8.88;;;;;;;-0.24;89.71;102462.06;6243397;23;20429;-72
2024/01/12 09:32:55;;;;;;;18.42;9.55;;;;;;;-0.43;89.27;102469.47;6243445;23;20046;-72
2024/01/12 09:35:23;;;;;;;19.60;9.65;;;;;;;-0.46;89.77;102469.47;6243650;23;20024;-73
2024/01/12 09:37:49;;;;;;;18.70;9.23;;;;;;;-0.30;89.74;102468.38;6242673;23;20516;-73
2024/01/12 09:40:17;;;;;;;19.05;9.32;;;;;;;-0.21;89.43;102451.34;6242574;22;20098;-72
2024/01/12 09:42:48;;;;;;;18.70;8.90;;;;;;;-0.14;88.92;102458.34;6242402;23;20020;-73
2024/01/12 09:45:17;;;;;;;14.63;7.78;;;;;;;-0.06;88.23;102461.78;6242811;23;20024;-72
2024/01/12 09:47:50;;;;;;;14.88;7.45;;;;;;;-0.21;88.88;102459.34;6243576;23;20024;-73
2024/01/12 09:50:21;;;;;;;14.10;7.07;;;;;;;-0.15;88.46;102440.59;6244207;23;20055;-73
2024/01/12 09:52:49;;;;;;;12.93;7.13;;;;;;;-0.25;88.89;102444.31;6244526;23;20043;-73
2024/01/12 09:55:16;;;;;;;17.13;7.15;;;;;;;-0.25;88.33;102445.19;6244133;23;20087;-72
2024/01/12 09:57:46;;;;;;;12.68;5.80;;;;;;;-0.22;88.32;102438.91;6243511;23;20473;-72
2024/01/12 10:00:16;;;;;;;14.95;7.20;;;;;;;-0.13;88.19;102429.91;6243365;23;20024;-72
2024/01/12 10:02:44;;;;;;;15.10;7.50;;;;;;;-0.01;87.97;102438.56;6244499;23;20047;-72
2024/01/12 10:05:11;;;;;;;13.43;7.78;;;;;;;-0.17;87.60;102434.38;6243675;23;20119;-72
2024/01/12 10:07:37;;;;;;;14.90;7.88;;;;;;;-0.24;88.50;102424.75;6244048;23;20336;-72
2024/01/12 10:10:08;;;;;;;15.82;7.70;;;;;;;-0.27;89.02;102432.75;6244732;23;20465;-72
2024/01/12 10:12:34;;;;;;;13.82;7.60;;;;;;;-0.22;88.77;102433.59;6244375;23;20027;-72
2024/01/12 10:15:08;;;;;;;17.27;8.20;;;;;;;-0.25;88.95;102428.31;6217986;23;20406;-73
2024/01/12 10:17:34;;;;;;;19.38;8.93;;;;;;;-0.29;88.80;102422.13;6242972;23;20020;-72
2024/01/12 10:20:04;;;;;;;16.15;7.93;;;;;;;-0.13;88.78;102420.09;6243218;23;20513;-72
2024/01/12 10:22:31;;;;;;;16.80;8.27;;;;;;;-0.10;88.09;102417.38;6243400;23;20455;-72
2024/01/12 10:25:03;;;;;;;16.38;8.20;;;;;;;-0.09;87.88;102418.25;6242855;23;20032;-72
2024/01/12 10:27:31;;;;;;;16.60;8.35;;;;;;;0.04;87.82;102422.50;6242711;23;20422;-74
2024/01/12 10:29:58;;;;;;;18.17;8.90;;;;;;;-0.19;88.53;102422.84;6242976;23;20031;-74
2024/01/12 10:32:26;;;;;;;18.00;9.43;;;;;;;-0.27;88.74;102422.09;6244641;23;20024;-74
2024/01/12 10:34:53;;;;;;;24.73;12.18;;;;;;;-0.16;88.94;102417.50;6243630;23;20024;-74
2024/01/12 10:37:21;;;;;;;17.80;10.10;;;;;;;-0.19;88.55;102418.41;6242808;23;20043;-73
2024/01/12 10:39:49;;;;;;;24.10;10.50;;;;;;;-0.15;88.97;102419.25;6247426;22;20027;-73
2024/01/12 10:42:17;;;;;;;24.65;11.48;;;;;;;-0.08;88.80;102410.22;6273620;22;20059;-73
2024/01/12 10:44:45;;;;;;;25.90;11.93;;;;;;;-0.19;89.24;102418.41;6273297;22;20098;-73
2024/01/12 10:47:16;;;;;;;25.55;12.27;;;;;;;-0.22;89.84;102418.47;6273979;22;20504;-73
2024/01/12 10:49:57;;;;;;;25.10;11.90;;;;;;;-0.26;89.86;102413.19;6272950;22;20511;-74
2024/01/12 10:52:33;;;;;;;22.27;9.63;;;;;;;-0.22;90.51;102412.25;6273967;22;20046;-73
2024/01/12 10:55:04;;;;;;;22.90;12.20;;;;;;;-0.21;89.89;102414.00;6273285;22;20090;-74
2024/01/12 10:57:32;;;;;;;24.80;11.68;;;;;;;-0.18;89.45;102419.28;6273349;22;20028;-74
2024/01/12 10:59:59;;;;;;;25.38;12.40;;;;;;;-0.25;89.15;102420.31;6273671;22;20475;-73
2024/01/12 11:02:28;;;;;;;26.02;12.98;;;;;;;-0.24;89.68;102417.63;6274113;22;20528;-73
2024/01/12 11:04:57;;;;;;;26.58;11.70;;;;;;;-0.32;89.40;102426.63;6275611;22;20027;-73
2024/01/12 11:07:24;;;;;;;22.27;10.95;;;;;;;-0.25;89.15;102409.66;6274268;22;20023;-74
2024/01/12 11:09:51;;;;;;;20.52;10.43;;;;;;;-0.38;88.76;102398.28;6274049;22;20501;-74
2024/01/12 11:12:37;;;;;;;16.85;9.07;;;;;;;-0.30;88.97;102406.16;6273762;22;20517;-74